createdAt,value
2023-12-01T00:00:34.032Z,8.38
2023-12-01T00:03:01.841Z,6.50
2023-12-01T00:05:29.376Z,9.40
2023-12-01T00:07:57.270Z,7.05
2023-12-01T00:10:25.014Z,9.65
2023-12-01T00:12:52.865Z,9.30
2023-12-01T00:15:20.638Z,5.90
2023-12-01T00:17:48.356Z,9.70
2023-12-01T00:20:15.896Z,8.18
2023-12-01T00:22:43.738Z,7.03
2023-12-01T00:25:11.842Z,7.95
2023-12-01T00:27:39.757Z,6.38
2023-12-01T00:30:07.912Z,12.50
2023-12-01T00:32:35.651Z,10.77
2023-12-01T00:35:03.327Z,9.15
2023-12-01T00:37:32.453Z,8.70
2023-12-01T00:40:00.280Z,10.05
2023-12-01T00:42:27.825Z,7.95
2023-12-01T00:44:55.659Z,8.02
2023-12-01T00:47:23.324Z,5.97
2023-12-01T00:49:50.877Z,6.28
2023-12-01T00:52:18.675Z,11.50
2023-12-01T00:54:46.170Z,7.90
2023-12-01T00:57:13.864Z,8.25
2023-12-01T00:59:41.504Z,7.22
2023-12-01T01:02:10.012Z,9.98
2023-12-01T01:04:37.693Z,10.35
2023-12-01T01:07:05.614Z,9.27
2023-12-01T01:09:33.133Z,7.63
2023-12-01T01:12:02.910Z,9.15
2023-12-01T01:14:30.798Z,7.80
2023-12-01T01:16:58.919Z,8.93
2023-12-01T01:19:26.479Z,11.10
2023-12-01T01:21:54.164Z,11.63
2023-12-01T01:24:21.896Z,10.15
2023-12-01T01:26:49.422Z,9.27
2023-12-01T01:29:17.193Z,9.95
2023-12-01T01:31:44.750Z,11.13
2023-12-01T01:34:12.718Z,14.32
2023-12-01T01:36:40.290Z,13.75
2023-12-01T01:39:07.773Z,10.65
2023-12-01T01:41:35.693Z,13.82
2023-12-01T01:44:03.239Z,12.98
2023-12-01T01:48:59.493Z,8.70
2023-12-01T01:51:28.049Z,14.63
2023-12-01T01:53:56.239Z,11.90
2023-12-01T01:56:24.684Z,11.88
2023-12-01T01:58:52.435Z,12.43
2023-12-01T02:01:20.504Z,12.73
2023-12-01T02:03:49.289Z,10.13
2023-12-01T02:06:16.734Z,14.18
2023-12-01T02:08:45.611Z,12.40
2023-12-01T02:11:16.253Z,15.00
2023-12-01T02:13:44.519Z,11.75
2023-12-01T02:16:12.117Z,14.18
2023-12-01T02:18:40.094Z,12.68
2023-12-01T02:21:07.776Z,10.50
2023-12-01T02:23:36.690Z,14.88
2023-12-01T02:26:11.293Z,12.25
2023-12-01T02:28:39.364Z,12.77
2023-12-01T02:31:07.090Z,14.65
2023-12-01T02:33:34.978Z,13.27
2023-12-01T02:36:04.904Z,11.95
2023-12-01T02:38:32.711Z,11.13
2023-12-01T02:41:00.428Z,11.43
2023-12-01T02:43:28.026Z,12.95
2023-12-01T02:45:55.973Z,10.43
2023-12-01T02:48:25.054Z,12.98
2023-12-01T02:50:52.522Z,16.05
2023-12-01T02:53:20.087Z,10.18
2023-12-01T02:55:47.902Z,11.65
2023-12-01T02:58:15.791Z,13.27
2023-12-01T03:00:46.237Z,14.60
2023-12-01T03:05:58.895Z,11.23
2023-12-01T03:08:26.375Z,10.93
2023-12-01T03:10:55.107Z,15.07
2023-12-01T03:13:23.714Z,12.65
2023-12-01T03:15:51.799Z,11.48
2023-12-01T03:18:23.873Z,13.55
2023-12-01T03:20:51.801Z,12.93
2023-12-01T03:23:19.219Z,13.63
2023-12-01T03:25:46.751Z,11.80
2023-12-01T03:28:16.072Z,13.73
2023-12-01T03:30:44.172Z,10.65
2023-12-01T03:33:13.783Z,10.88
2023-12-01T03:35:41.372Z,11.65
2023-12-01T03:38:08.877Z,14.85
2023-12-01T03:40:36.325Z,13.70
2023-12-01T03:43:03.892Z,12.80
2023-12-01T03:45:31.572Z,13.27
2023-12-01T03:47:59.130Z,15.18
2023-12-01T03:50:26.794Z,17.15
2023-12-01T03:52:54.427Z,10.10
2023-12-01T03:55:23.261Z,17.75
2023-12-01T03:57:51.216Z,14.70
2023-12-01T04:00:20.646Z,13.77
2023-12-01T04:02:50.130Z,13.85
2023-12-01T04:05:21.920Z,13.15
2023-12-01T04:07:55.224Z,14.40
2023-12-01T04:11:00.083Z,16.80
2023-12-01T04:14:34.586Z,17.33
2023-12-01T04:17:46.817Z,18.27
2023-12-01T04:21:11.751Z,11.70
2023-12-01T04:27:20.181Z,11.95
2023-12-01T04:30:20.364Z,14.40
2023-12-01T04:33:20.654Z,21.48
2023-12-01T04:39:33.126Z,13.65
2023-12-01T04:42:03.705Z,15.43
2023-12-01T04:44:33.239Z,15.30
2023-12-01T04:48:26.682Z,14.93
2023-12-01T04:51:00.715Z,19.00
2023-12-01T04:53:54.548Z,18.25
2023-12-01T04:56:22.845Z,13.05
2023-12-01T04:58:51.267Z,24.30
2023-12-01T05:01:18.774Z,17.88
2023-12-01T05:03:46.305Z,15.77
2023-12-01T05:06:13.927Z,16.00
2023-12-01T05:08:41.374Z,17.90
2023-12-01T05:11:08.847Z,19.50
2023-12-01T05:13:36.330Z,16.00
2023-12-01T05:16:06.011Z,15.32
2023-12-01T05:18:33.498Z,19.38
2023-12-01T05:21:00.913Z,27.58
2023-12-01T05:23:28.371Z,21.70
2023-12-01T05:25:55.802Z,16.60
2023-12-01T05:28:23.350Z,15.35
2023-12-01T05:30:50.886Z,14.73
2023-12-01T05:33:18.508Z,16.02
2023-12-01T05:35:47.440Z,17.92
2023-12-01T05:38:17.639Z,17.50
2023-12-01T05:40:45.519Z,15.02
2023-12-01T05:43:14.500Z,17.55
2023-12-01T05:45:42.148Z,16.23
2023-12-01T05:48:10.619Z,12.85
2023-12-01T05:50:43.302Z,21.35
2023-12-01T05:53:12.436Z,21.02
2023-12-01T05:55:40.054Z,17.05
2023-12-01T05:58:13.326Z,16.40
2023-12-01T06:00:42.911Z,17.45
2023-12-01T06:03:12.562Z,16.40
2023-12-01T06:05:41.534Z,18.92
2023-12-01T06:08:12.760Z,18.15
2023-12-01T06:10:41.050Z,18.77
2023-12-01T06:13:09.155Z,15.98
2023-12-01T06:15:36.967Z,12.65
2023-12-01T06:18:05.111Z,20.35
2023-12-01T06:20:33.431Z,18.58
2023-12-01T06:23:03.334Z,15.52
2023-12-01T06:25:34.269Z,16.65
2023-12-01T06:28:04.362Z,17.85
2023-12-01T06:30:37.833Z,14.55
2023-12-01T06:33:10.498Z,17.88
2023-12-01T06:35:38.626Z,15.35
2023-12-01T06:38:06.937Z,18.33
2023-12-01T06:40:35.174Z,14.25
2023-12-01T06:43:13.550Z,20.27
2023-12-01T06:45:44.309Z,15.23
2023-12-01T06:48:13.563Z,18.05
2023-12-01T06:50:41.124Z,16.05
2023-12-01T06:53:08.900Z,15.60
2023-12-01T06:55:37.478Z,17.13
2023-12-01T06:58:05.101Z,15.25
2023-12-01T07:00:38.254Z,13.30
2023-12-01T07:03:09.589Z,13.00
2023-12-01T07:05:39.232Z,16.88
2023-12-01T07:08:13.367Z,12.60
2023-12-01T07:10:41.366Z,16.02
2023-12-01T07:13:09.130Z,19.10
2023-12-01T07:15:38.592Z,16.38
2023-12-01T07:18:07.091Z,17.63
2023-12-01T07:20:34.993Z,18.27
2023-12-01T07:23:04.830Z,13.95
2023-12-01T07:25:34.445Z,14.02
2023-12-01T07:28:04.453Z,15.15
2023-12-01T07:30:32.278Z,18.67
2023-12-01T07:33:01.986Z,15.80
2023-12-01T07:35:30.070Z,15.05
2023-12-01T07:37:57.615Z,18.55
2023-12-01T07:40:26.335Z,21.58
2023-12-01T07:42:59.408Z,13.60
2023-12-01T07:45:27.575Z,24.48
2023-12-01T07:47:57.102Z,15.65
2023-12-01T07:50:29.066Z,16.95
2023-12-01T07:52:57.485Z,14.60
2023-12-01T07:55:25.582Z,17.33
2023-12-01T07:57:53.535Z,14.13
2023-12-01T08:00:21.093Z,16.27
2023-12-01T08:02:54.385Z,21.20
2023-12-01T08:05:24.680Z,22.17
2023-12-01T08:07:54.747Z,18.45
2023-12-01T08:10:25.407Z,19.27
2023-12-01T08:12:58.432Z,17.42
2023-12-01T08:15:29.182Z,21.23
2023-12-01T08:17:59.118Z,21.70
2023-12-01T08:20:30.084Z,18.75
2023-12-01T08:22:58.840Z,18.95
2023-12-01T08:25:27.547Z,19.20
2023-12-01T08:27:55.810Z,19.60
2023-12-01T08:30:26.628Z,19.17
2023-12-01T08:32:56.002Z,20.17
2023-12-01T08:35:24.035Z,19.40
2023-12-01T08:37:54.830Z,18.70
2023-12-01T08:40:23.605Z,27.15
2023-12-01T08:42:54.958Z,21.75
2023-12-01T08:45:23.121Z,20.48
2023-12-01T08:47:53.178Z,24.48
2023-12-01T08:50:21.319Z,23.77
2023-12-01T08:52:49.622Z,23.58
2023-12-01T08:55:17.360Z,22.45
2023-12-01T08:57:44.971Z,25.73
2023-12-01T09:00:15.770Z,18.48
2023-12-01T09:02:43.367Z,22.02
2023-12-01T09:05:11.438Z,25.88
2023-12-01T09:07:39.378Z,24.27
2023-12-01T09:10:07.378Z,23.48
2023-12-01T09:12:35.634Z,20.83
2023-12-01T09:15:03.411Z,22.58
2023-12-01T09:17:32.030Z,23.60
2023-12-01T09:19:59.794Z,24.77
2023-12-01T09:22:27.604Z,21.90
2023-12-01T09:24:55.216Z,25.00
2023-12-01T09:27:22.813Z,23.25
2023-12-01T09:29:50.479Z,23.42
2023-12-01T09:32:21.277Z,27.05
2023-12-01T09:34:49.099Z,24.30
2023-12-01T09:37:16.842Z,29.98
2023-12-01T09:39:46.404Z,22.13
2023-12-01T09:42:16.076Z,22.20
2023-12-01T09:44:44.336Z,26.20
2023-12-01T09:47:18.296Z,27.90
2023-12-01T09:49:49.559Z,25.75
2023-12-01T09:52:17.682Z,25.35
2023-12-01T09:55:06.737Z,28.45
2023-12-01T09:57:32.928Z,22.98
2023-12-01T10:00:01.132Z,23.48
2023-12-01T10:02:32.165Z,28.00
2023-12-01T10:05:02.509Z,23.13
2023-12-01T10:07:31.776Z,24.70
2023-12-01T10:09:59.504Z,24.38
2023-12-01T10:12:27.059Z,29.20
2023-12-01T10:14:56.028Z,26.92
2023-12-01T10:17:29.182Z,26.05
2023-12-01T10:19:56.909Z,21.27
2023-12-01T10:22:25.760Z,23.20
2023-12-01T10:25:05.298Z,23.63
2023-12-01T10:27:33.641Z,29.55
2023-12-01T10:30:12.663Z,23.52
2023-12-01T10:32:41.858Z,22.00
2023-12-01T10:35:09.726Z,27.35
2023-12-01T10:37:38.597Z,28.85
2023-12-01T10:40:09.793Z,23.52
2023-12-01T10:42:37.698Z,23.15
2023-12-01T10:45:05.882Z,18.30
2023-12-01T10:47:34.841Z,22.27
2023-12-01T10:50:03.623Z,32.35
2023-12-01T10:52:35.890Z,27.42
2023-12-01T10:55:05.734Z,24.42
2023-12-01T10:57:42.040Z,25.92
2023-12-01T11:00:21.180Z,26.63
2023-12-01T11:02:52.415Z,27.98
2023-12-01T11:05:20.588Z,26.25
2023-12-01T11:08:17.106Z,24.25
2023-12-01T11:11:08.902Z,30.13
2023-12-01T11:13:46.907Z,22.90
2023-12-01T11:16:15.191Z,24.98
2023-12-01T11:18:45.928Z,23.15
2023-12-01T11:21:18.308Z,21.63
2023-12-01T11:23:45.914Z,27.30
2023-12-01T11:26:13.672Z,23.50
2023-12-01T11:28:44.155Z,24.38
2023-12-01T11:31:35.838Z,24.42
2023-12-01T11:34:10.341Z,26.00
2023-12-01T11:36:38.305Z,25.13
2023-12-01T11:39:15.839Z,24.85
2023-12-01T11:41:47.795Z,29.42
2023-12-01T11:44:38.724Z,17.45
2023-12-01T11:47:09.137Z,19.05
2023-12-01T11:49:40.421Z,24.50
2023-12-01T11:52:16.238Z,25.55
2023-12-01T11:54:44.561Z,25.60
2023-12-01T11:57:15.567Z,22.58
2023-12-01T11:59:43.359Z,25.63
2023-12-01T12:02:11.193Z,26.20
2023-12-01T12:04:39.648Z,25.40
2023-12-01T12:07:07.738Z,21.85
2023-12-01T12:09:37.210Z,19.90
2023-12-01T12:12:11.283Z,25.13
2023-12-01T12:14:40.241Z,24.15
2023-12-01T12:17:08.541Z,22.35
2023-12-01T12:19:50.988Z,25.17
2023-12-01T12:22:23.152Z,31.92
2023-12-01T12:24:52.131Z,27.33
2023-12-01T12:27:20.543Z,26.17
2023-12-01T12:29:50.966Z,27.58
2023-12-01T12:32:19.098Z,22.92
2023-12-01T12:34:46.764Z,29.25
2023-12-01T12:37:14.781Z,25.75
2023-12-01T12:39:46.043Z,23.25
2023-12-01T12:42:17.818Z,26.90
2023-12-01T12:44:47.377Z,25.70
2023-12-01T12:47:16.272Z,28.30
2023-12-01T12:49:44.773Z,22.85
2023-12-01T12:52:12.964Z,25.55
2023-12-01T12:54:44.252Z,28.35
2023-12-01T12:57:12.218Z,23.92
2023-12-01T12:59:39.980Z,25.00
2023-12-01T13:02:08.156Z,23.63
2023-12-01T13:04:36.034Z,27.42
2023-12-01T13:07:04.064Z,31.08
2023-12-01T13:09:31.554Z,26.20
2023-12-01T13:11:59.720Z,25.15
2023-12-01T13:14:27.312Z,24.73
2023-12-01T13:16:56.661Z,22.38
2023-12-01T13:19:25.813Z,27.05
2023-12-01T13:21:56.229Z,27.05
2023-12-01T13:24:26.825Z,23.98
2023-12-01T13:26:55.852Z,22.88
2023-12-01T13:29:23.456Z,29.08
2023-12-01T13:31:51.517Z,30.08
2023-12-01T13:34:19.682Z,20.92
2023-12-01T13:36:49.611Z,27.85
2023-12-01T13:39:18.070Z,23.13
2023-12-01T13:41:46.469Z,24.85
2023-12-01T13:44:14.031Z,23.52
2023-12-01T13:46:41.730Z,27.85
2023-12-01T13:49:10.132Z,20.85
2023-12-01T13:51:37.767Z,24.63
2023-12-01T13:54:05.957Z,24.55
2023-12-01T13:56:33.756Z,26.30
2023-12-01T13:59:01.159Z,25.85
2023-12-01T14:01:29.067Z,32.58
2023-12-01T14:03:56.922Z,35.38
2023-12-01T14:06:24.628Z,38.50
2023-12-01T14:08:52.165Z,30.52
2023-12-01T14:11:19.975Z,36.10
2023-12-01T14:13:47.487Z,35.33
2023-12-01T14:16:15.848Z,27.85
2023-12-01T14:18:43.953Z,41.83
2023-12-01T14:21:11.591Z,36.17
2023-12-01T14:23:39.218Z,29.55
2023-12-01T14:26:07.499Z,38.25
2023-12-01T14:28:36.239Z,30.35
2023-12-01T14:31:04.463Z,28.13
2023-12-01T14:33:32.920Z,28.38
2023-12-01T14:36:01.173Z,31.08
2023-12-01T14:38:28.918Z,33.53
2023-12-01T14:40:56.453Z,25.83
2023-12-01T14:43:24.074Z,36.25
2023-12-01T14:45:51.583Z,32.33
2023-12-01T14:48:19.215Z,28.63
2023-12-01T14:50:51.216Z,26.60
2023-12-01T14:53:19.762Z,35.95
2023-12-01T14:55:47.863Z,30.27
2023-12-01T14:58:15.659Z,33.50
2023-12-01T15:00:43.578Z,30.80
2023-12-01T15:03:11.366Z,31.73
2023-12-01T15:05:38.961Z,33.00
2023-12-01T15:08:06.584Z,28.48
2023-12-01T15:10:34.075Z,28.05
2023-12-01T15:13:01.572Z,31.00
2023-12-01T15:15:29.205Z,33.17
2023-12-01T15:17:56.900Z,30.88
2023-12-01T15:20:24.562Z,30.95
2023-12-01T15:22:52.162Z,25.20
2023-12-01T15:25:19.846Z,27.58
2023-12-01T15:27:47.317Z,23.15
2023-12-01T15:30:15.227Z,24.00
2023-12-01T15:32:42.854Z,28.25
2023-12-01T15:35:10.511Z,25.95
2023-12-01T15:37:38.789Z,25.65
2023-12-01T15:40:06.963Z,30.63
2023-12-01T15:42:34.508Z,22.77
2023-12-01T15:45:02.172Z,22.27
2023-12-01T15:47:32.604Z,25.80
2023-12-01T15:50:00.374Z,27.40
2023-12-01T15:52:27.905Z,30.27
2023-12-01T15:54:55.504Z,29.70
2023-12-01T15:57:23.637Z,23.63
2023-12-01T15:59:51.118Z,19.88
2023-12-01T16:02:21.556Z,27.77
2023-12-01T16:04:49.325Z,23.75
2023-12-01T16:07:16.851Z,29.80
2023-12-01T16:09:44.475Z,26.88
2023-12-01T16:12:12.896Z,22.30
2023-12-01T16:14:40.898Z,26.70
2023-12-01T16:17:12.322Z,19.17
2023-12-01T16:19:42.578Z,27.85
2023-12-01T16:22:11.272Z,26.27
2023-12-01T16:24:40.692Z,34.40
2023-12-01T16:27:08.225Z,23.00
2023-12-01T16:29:35.723Z,20.00
2023-12-01T16:32:03.231Z,25.55
2023-12-01T16:34:30.711Z,22.73
2023-12-01T16:36:58.232Z,26.52
2023-12-01T16:39:26.352Z,24.20
2023-12-01T16:41:54.724Z,25.33
2023-12-01T16:44:22.441Z,23.42
2023-12-01T16:46:50.009Z,24.80
2023-12-01T16:49:17.765Z,23.73
2023-12-01T16:51:45.275Z,22.80
2023-12-01T16:54:13.273Z,20.67
2023-12-01T16:56:40.804Z,23.48
2023-12-01T16:59:08.229Z,22.08
2023-12-01T17:01:35.675Z,28.05
2023-12-01T17:04:03.306Z,24.70
2023-12-01T17:06:30.874Z,29.38
2023-12-01T17:09:00.300Z,18.77
2023-12-01T17:11:28.359Z,22.35
2023-12-01T17:13:56.068Z,19.75
2023-12-01T17:16:23.509Z,19.98
2023-12-01T17:18:51.422Z,21.23
2023-12-01T17:21:19.072Z,17.98
2023-12-01T17:23:46.811Z,22.92
2023-12-01T17:26:14.478Z,18.88
2023-12-01T17:28:42.231Z,30.88
2023-12-01T17:31:10.795Z,21.25
2023-12-01T17:33:38.492Z,22.35
2023-12-01T17:36:06.471Z,27.92
2023-12-01T17:38:33.913Z,18.77
2023-12-01T17:41:01.648Z,25.80
2023-12-01T17:43:29.457Z,33.85
2023-12-01T17:45:56.970Z,23.95
2023-12-01T17:48:24.516Z,24.17
2023-12-01T17:50:52.198Z,22.60
2023-12-01T17:53:19.796Z,19.90
2023-12-01T17:55:47.585Z,23.27
2023-12-01T17:58:15.177Z,21.73
2023-12-01T18:00:42.612Z,17.70
2023-12-01T18:03:10.112Z,21.85
2023-12-01T18:05:37.646Z,20.77
2023-12-01T18:08:05.324Z,20.40
2023-12-01T18:10:32.933Z,19.40
2023-12-01T18:13:00.702Z,22.48
2023-12-01T18:15:28.196Z,22.98
2023-12-01T18:17:55.699Z,25.80
2023-12-01T18:20:25.784Z,34.75
2023-12-01T18:22:53.387Z,18.15
2023-12-01T18:25:20.805Z,23.15
2023-12-01T18:27:50.761Z,20.65
2023-12-01T18:30:20.366Z,22.70
2023-12-01T18:32:48.141Z,19.75
2023-12-01T18:35:16.214Z,19.98
2023-12-01T18:37:43.974Z,23.08
2023-12-01T18:40:12.313Z,21.45
2023-12-01T18:42:39.849Z,19.83
2023-12-01T18:45:07.917Z,22.48
2023-12-01T18:47:36.991Z,22.95
2023-12-01T18:50:05.179Z,17.35
2023-12-01T18:52:32.801Z,22.27
2023-12-01T18:55:00.227Z,20.27
2023-12-01T18:57:27.817Z,18.17
2023-12-01T18:59:55.370Z,22.17
2023-12-01T19:02:23.120Z,21.15
2023-12-01T19:04:50.637Z,19.90
2023-12-01T19:07:18.121Z,24.60
2023-12-01T19:09:45.661Z,24.95
2023-12-01T19:12:13.214Z,27.40
2023-12-01T19:14:40.637Z,20.30
2023-12-01T19:17:08.132Z,22.92
2023-12-01T19:19:35.671Z,26.40
2023-12-01T19:22:05.001Z,26.05
2023-12-01T19:24:32.505Z,21.80
2023-12-01T19:27:00.034Z,20.10
2023-12-01T19:29:27.508Z,21.50
2023-12-01T19:31:55.022Z,21.77
2023-12-01T19:34:22.551Z,19.25
2023-12-01T19:36:50.125Z,22.05
2023-12-01T19:39:17.737Z,25.35
2023-12-01T19:41:45.729Z,20.75
2023-12-01T19:44:13.485Z,24.80
2023-12-01T19:46:40.950Z,25.90
2023-12-01T19:49:08.553Z,20.45
2023-12-01T19:51:39.356Z,20.73
2023-12-01T19:54:06.990Z,27.90
2023-12-01T19:56:35.629Z,22.00
2023-12-01T19:59:03.114Z,18.30
2023-12-01T20:01:31.307Z,17.63
2023-12-01T20:03:58.846Z,19.00
2023-12-01T20:06:26.455Z,20.63
2023-12-01T20:08:54.113Z,26.90
2023-12-01T20:11:21.648Z,17.42
2023-12-01T20:13:49.167Z,19.73
2023-12-01T20:16:16.745Z,19.23
2023-12-01T20:18:44.629Z,18.63
2023-12-01T20:21:12.185Z,17.48
2023-12-01T20:23:39.745Z,21.38
2023-12-01T20:26:07.379Z,15.95
2023-12-01T20:28:36.797Z,25.48
2023-12-01T20:31:07.284Z,16.58
2023-12-01T20:33:34.851Z,18.00
2023-12-01T20:36:02.550Z,16.60
2023-12-01T20:38:30.188Z,22.00
2023-12-01T20:40:58.437Z,17.98
2023-12-01T20:43:25.881Z,17.58
2023-12-01T20:45:53.357Z,18.98
2023-12-01T20:48:21.153Z,20.27
2023-12-01T20:50:48.722Z,20.08
2023-12-01T20:53:16.246Z,22.80
2023-12-01T20:55:45.989Z,17.67
2023-12-01T20:58:13.753Z,17.95
2023-12-01T21:00:41.227Z,19.92
2023-12-01T21:03:08.836Z,25.85
2023-12-01T21:05:36.451Z,17.13
2023-12-01T21:08:04.056Z,21.20
2023-12-01T21:10:31.556Z,24.17
2023-12-01T21:12:59.015Z,20.70
2023-12-01T21:15:26.605Z,16.13
2023-12-01T21:17:54.081Z,16.88
2023-12-01T21:20:23.626Z,19.20
2023-12-01T21:22:52.905Z,22.65
2023-12-01T21:25:20.382Z,19.67
2023-12-01T21:27:47.914Z,23.40
2023-12-01T21:30:15.712Z,19.73
2023-12-01T21:32:43.241Z,19.23
2023-12-01T21:35:10.833Z,22.52
2023-12-01T21:37:38.531Z,15.13
2023-12-01T21:40:06.656Z,24.85
2023-12-01T21:42:34.201Z,17.90
2023-12-01T21:45:01.799Z,21.58
2023-12-01T21:47:31.569Z,16.23
2023-12-01T21:49:59.185Z,19.98
2023-12-01T21:52:26.749Z,22.80
2023-12-01T21:54:54.267Z,21.88
2023-12-01T21:57:21.777Z,18.92
2023-12-01T21:59:49.474Z,17.40
2023-12-01T22:02:19.242Z,19.13
2023-12-01T22:04:46.696Z,23.92
2023-12-01T22:07:14.287Z,19.23
2023-12-01T22:09:41.851Z,17.83
2023-12-01T22:12:09.376Z,23.67
2023-12-01T22:14:37.525Z,22.67
2023-12-01T22:17:04.926Z,21.38
2023-12-01T22:19:32.756Z,29.35
2023-12-01T22:22:00.522Z,17.85
2023-12-01T22:24:29.810Z,26.58
2023-12-01T22:26:57.477Z,19.60
2023-12-01T22:29:25.514Z,19.73
2023-12-01T22:31:52.985Z,21.75
2023-12-01T22:34:20.660Z,26.65
2023-12-01T22:36:48.467Z,21.98
2023-12-01T22:39:16.184Z,25.33
2023-12-01T22:41:45.718Z,23.38
2023-12-01T22:44:13.547Z,27.80
2023-12-01T22:46:40.966Z,22.23
2023-12-01T22:49:09.347Z,24.98
2023-12-01T22:51:37.118Z,28.00
2023-12-01T22:54:04.873Z,27.70
2023-12-01T22:56:32.530Z,23.65
2023-12-01T22:59:00.163Z,22.50
2023-12-01T23:01:27.828Z,26.60
2023-12-01T23:03:55.731Z,27.27
2023-12-01T23:06:23.536Z,20.70
2023-12-01T23:08:54.204Z,25.75
2023-12-01T23:11:23.279Z,23.23
2023-12-01T23:13:50.961Z,29.88
2023-12-01T23:16:18.665Z,29.55
2023-12-01T23:18:46.401Z,30.85
2023-12-01T23:21:14.053Z,18.38
2023-12-01T23:23:42.123Z,34.33
2023-12-01T23:26:09.713Z,25.63
2023-12-01T23:28:37.351Z,25.23
2023-12-01T23:31:05.894Z,29.38
2023-12-01T23:33:33.531Z,24.88
2023-12-01T23:36:01.044Z,23.88
2023-12-01T23:38:29.210Z,30.33
2023-12-01T23:40:56.726Z,30.08
2023-12-01T23:43:24.183Z,29.48
2023-12-01T23:45:51.607Z,28.67
2023-12-01T23:48:19.287Z,33.58
2023-12-01T23:50:46.910Z,38.78
2023-12-01T23:53:14.437Z,27.27
2023-12-01T23:55:42.063Z,39.92
2023-12-01T23:58:09.740Z,30.52
